createdAt,value
2018-06-10T00:00:33.575Z,26.65
2018-06-10T00:05:36.676Z,26.54
2018-06-10T00:10:39.682Z,26.42
2018-06-10T00:15:42.763Z,26.26
2018-06-10T00:20:45.826Z,26.13
2018-06-10T00:25:48.861Z,26.01
2018-06-10T00:30:51.877Z,25.94
2018-06-10T00:35:54.917Z,25.90
2018-06-10T00:40:57.973Z,25.95
2018-06-10T00:46:01.045Z,25.96
2018-06-10T00:51:04.107Z,25.98
2018-06-10T00:56:24.280Z,25.95
2018-06-10T01:01:27.295Z,25.79
2018-06-10T01:06:30.345Z,25.76
2018-06-10T01:11:33.350Z,25.67
2018-06-10T01:16:36.409Z,25.50
2018-06-10T01:21:39.392Z,25.41
2018-06-10T01:26:48.090Z,25.44
2018-06-10T01:31:51.096Z,25.37
2018-06-10T01:36:54.106Z,25.31
2018-06-10T01:41:57.168Z,25.24
2018-06-10T01:47:00.212Z,25.20
2018-06-10T01:52:03.261Z,25.10
2018-06-10T01:57:06.269Z,25.07
2018-06-10T02:02:09.306Z,25.00
2018-06-10T02:07:13.322Z,24.79
2018-06-10T02:12:16.346Z,24.69
2018-06-10T02:17:19.414Z,24.59
2018-06-10T02:22:22.445Z,24.46
2018-06-10T02:27:25.422Z,24.51
2018-06-10T02:32:28.417Z,24.54
2018-06-10T02:37:31.447Z,24.47
2018-06-10T02:42:34.518Z,24.33
2018-06-10T02:47:37.521Z,24.36
2018-06-10T02:52:40.520Z,24.35
2018-06-10T02:57:43.637Z,24.32
2018-06-10T03:02:46.649Z,24.21
2018-06-10T03:07:49.950Z,24.15
2018-06-10T03:12:53.251Z,24.10
2018-06-10T03:17:56.577Z,24.04
2018-06-10T03:22:59.937Z,24.02
2018-06-10T03:28:03.211Z,24.07
2018-06-10T03:33:06.216Z,24.15
2018-06-10T03:38:09.217Z,24.28
2018-06-10T03:43:13.248Z,24.31
2018-06-10T03:48:16.321Z,24.22
2018-06-10T03:53:20.020Z,24.14
2018-06-10T03:58:24.186Z,24.17
2018-06-10T04:03:27.254Z,24.16
2018-06-10T04:08:30.614Z,24.12
2018-06-10T04:13:33.641Z,24.20
2018-06-10T04:18:36.697Z,24.13
2018-06-10T04:23:39.724Z,23.99
2018-06-10T04:28:42.793Z,23.83
2018-06-10T04:33:45.892Z,23.85
2018-06-10T04:38:48.852Z,23.85
2018-06-10T04:43:51.839Z,23.64
2018-06-10T04:48:54.821Z,23.30
2018-06-10T04:53:57.880Z,22.95
2018-06-10T04:59:00.863Z,22.78
2018-06-10T05:04:03.905Z,22.68
2018-06-10T05:09:07.012Z,22.57
2018-06-10T05:14:09.989Z,22.62
2018-06-10T05:19:13.053Z,22.66
2018-06-10T05:24:16.149Z,22.70
2018-06-10T05:29:19.137Z,22.77
2018-06-10T05:34:22.201Z,22.82
2018-06-10T05:39:25.185Z,22.84
2018-06-10T05:44:28.269Z,22.86
2018-06-10T05:49:31.293Z,22.86
2018-06-10T05:54:34.362Z,22.80
2018-06-10T05:59:37.317Z,22.71
2018-06-10T06:04:41.662Z,22.62
2018-06-10T06:09:44.662Z,22.51
2018-06-10T06:14:47.764Z,22.44
2018-06-10T06:19:50.793Z,22.48
2018-06-10T06:24:53.825Z,22.40
2018-06-10T06:29:58.198Z,22.26
2018-06-10T06:35:01.240Z,22.22
2018-06-10T06:40:04.352Z,21.96
2018-06-10T06:45:07.438Z,21.82
2018-06-10T06:50:10.531Z,21.62
2018-06-10T06:55:13.836Z,21.60
2018-06-10T07:00:16.912Z,21.74
2018-06-10T07:05:19.955Z,21.80
2018-06-10T07:10:23.019Z,21.91
2018-06-10T07:15:26.058Z,21.67
2018-06-10T07:20:29.157Z,21.38
2018-06-10T07:25:32.213Z,21.37
2018-06-10T07:30:35.195Z,21.54
2018-06-10T07:35:38.198Z,21.81
2018-06-10T07:40:41.253Z,22.05
2018-06-10T07:45:44.453Z,22.08
2018-06-10T07:50:47.513Z,22.20
2018-06-10T07:55:50.541Z,22.24
2018-06-10T08:00:53.542Z,22.29
2018-06-10T08:05:56.653Z,22.32
2018-06-10T08:10:59.758Z,22.33
2018-06-10T08:16:02.836Z,22.32
2018-06-10T08:21:05.901Z,22.40
2018-06-10T08:26:08.946Z,22.38
2018-06-10T08:31:12.055Z,22.39
2018-06-10T08:36:15.261Z,22.57
2018-06-10T08:41:18.378Z,22.51
2018-06-10T08:46:21.559Z,22.67
2018-06-10T08:51:24.657Z,22.43
2018-06-10T08:56:27.714Z,22.16
2018-06-10T09:01:30.958Z,22.10
2018-06-10T09:06:34.051Z,22.12
2018-06-10T09:11:37.586Z,22.32
2018-06-10T09:16:40.701Z,22.34
2018-06-10T09:21:43.762Z,22.31
2018-06-10T09:26:46.830Z,22.61
2018-06-10T09:31:50.288Z,22.84
2018-06-10T09:36:53.293Z,23.26
2018-06-10T09:41:56.316Z,23.42
2018-06-10T09:46:59.345Z,23.48
2018-06-10T09:52:03.351Z,23.52
2018-06-10T09:57:06.511Z,23.44
2018-06-10T10:02:09.656Z,23.38
2018-06-10T10:07:12.721Z,23.36
2018-06-10T10:12:15.757Z,23.58
2018-06-10T10:17:19.815Z,23.90
2018-06-10T10:22:22.951Z,24.23
2018-06-10T10:27:27.490Z,24.67
2018-06-10T10:32:30.534Z,25.32
2018-06-10T10:37:34.336Z,25.68
2018-06-10T10:42:38.408Z,25.87
2018-06-10T10:47:41.437Z,26.12
2018-06-10T10:52:44.492Z,26.35
2018-06-10T10:57:47.555Z,26.45
2018-06-10T11:02:50.586Z,26.88
2018-06-10T11:07:53.601Z,27.20
2018-06-10T11:12:56.678Z,27.35
2018-06-10T11:17:59.820Z,27.07
2018-06-10T11:23:02.927Z,27.01
2018-06-10T11:28:06.010Z,26.97
2018-06-10T11:33:09.138Z,26.92
2018-06-10T11:38:12.227Z,26.83
2018-06-10T11:43:15.270Z,26.70
2018-06-10T11:48:18.326Z,26.72
2018-06-10T11:53:21.365Z,27.44
2018-06-10T11:58:24.385Z,28.32
2018-06-10T12:03:27.730Z,28.53
2018-06-10T12:08:32.452Z,28.66
2018-06-10T12:13:36.259Z,28.55
2018-06-10T12:18:39.350Z,28.86
2018-06-10T12:23:42.365Z,28.90
2018-06-10T12:28:45.605Z,28.46
2018-06-10T12:33:48.693Z,28.10
2018-06-10T12:38:52.027Z,28.08
2018-06-10T12:43:56.826Z,27.90
2018-06-10T12:49:00.012Z,28.05
2018-06-10T12:54:03.132Z,28.33
2018-06-10T12:59:06.170Z,29.18
2018-06-10T13:04:09.194Z,29.02
2018-06-10T13:09:12.324Z,28.80
2018-06-10T13:14:15.373Z,28.35
2018-06-10T13:19:18.393Z,28.19
2018-06-10T13:24:21.445Z,28.07
2018-06-10T13:29:24.461Z,28.35
2018-06-10T13:34:27.505Z,28.02
2018-06-10T13:39:30.554Z,27.98
2018-06-10T13:44:33.612Z,28.66
2018-06-10T13:49:36.694Z,28.85
2018-06-10T13:54:39.768Z,29.42
2018-06-10T13:59:42.771Z,29.21
2018-06-10T14:04:45.817Z,29.37
2018-06-10T14:09:48.864Z,29.57
2018-06-10T14:14:51.917Z,29.10
2018-06-10T14:19:54.951Z,29.41
2018-06-10T14:24:58.034Z,29.68
2018-06-10T14:30:01.165Z,29.64
2018-06-10T14:35:04.349Z,29.09
2018-06-10T14:40:07.433Z,29.65
2018-06-10T14:45:10.517Z,29.85
2018-06-10T14:50:13.529Z,29.87
2018-06-10T14:55:16.609Z,29.79
2018-06-10T15:00:20.522Z,30.01
2018-06-10T15:05:23.741Z,30.18
2018-06-10T15:10:26.816Z,29.52
2018-06-10T15:15:29.951Z,29.50
2018-06-10T15:20:33.114Z,29.35
2018-06-10T15:25:36.395Z,29.15
2018-06-10T15:30:39.521Z,29.28
2018-06-10T15:35:42.567Z,29.54
2018-06-10T15:40:45.593Z,29.47
2018-06-10T15:45:48.602Z,29.73
2018-06-10T15:50:51.649Z,29.37
2018-06-10T15:55:54.681Z,28.99
2018-06-10T16:00:57.702Z,28.87
2018-06-10T16:06:00.738Z,28.86
2018-06-10T16:11:03.882Z,28.49
2018-06-10T16:16:06.901Z,28.33
2018-06-10T16:21:09.913Z,28.55
2018-06-10T16:26:12.983Z,28.56
2018-06-10T16:31:16.029Z,28.64
2018-06-10T16:36:19.102Z,29.22
2018-06-10T16:41:22.470Z,29.32
2018-06-10T16:46:25.538Z,29.00
2018-06-10T16:51:28.522Z,29.30
2018-06-10T16:56:31.537Z,29.20
2018-06-10T17:01:34.547Z,28.54
2018-06-10T17:06:37.582Z,28.03
2018-06-10T17:11:40.565Z,27.49
2018-06-10T17:16:43.586Z,27.56
2018-06-10T17:21:46.635Z,27.68
2018-06-10T17:26:49.658Z,27.59
2018-06-10T17:31:52.721Z,27.38
2018-06-10T17:36:55.815Z,27.01
2018-06-10T17:41:58.828Z,26.64
2018-06-10T17:47:02.949Z,26.60
2018-06-10T17:52:06.074Z,26.44
2018-06-10T17:57:09.111Z,26.28
2018-06-10T18:02:12.162Z,26.29
2018-06-10T18:07:15.169Z,26.29
2018-06-10T18:12:18.192Z,26.32
2018-06-10T18:17:21.702Z,26.20
2018-06-10T18:22:24.797Z,26.04
2018-06-10T18:27:27.897Z,25.91
2018-06-10T18:32:31.013Z,25.63
2018-06-10T18:37:34.091Z,25.50
2018-06-10T18:42:37.124Z,25.32
2018-06-10T18:47:40.229Z,25.26
2018-06-10T18:52:43.297Z,25.02
2018-06-10T18:57:46.361Z,24.88
2018-06-10T19:02:49.381Z,24.66
2018-06-10T19:07:52.405Z,24.29
2018-06-10T19:12:55.626Z,24.09
2018-06-10T19:17:59.111Z,23.80
2018-06-10T19:23:02.158Z,23.66
2018-06-10T19:28:05.804Z,23.50
2018-06-10T19:33:08.840Z,23.15
2018-06-10T19:38:11.864Z,22.95
2018-06-10T19:43:14.875Z,22.97
2018-06-10T19:48:17.921Z,22.86
2018-06-10T19:53:20.946Z,22.74
2018-06-10T19:58:24.016Z,22.73
2018-06-10T20:03:27.122Z,22.60
2018-06-10T20:08:30.141Z,22.46
2018-06-10T20:13:33.173Z,22.35
2018-06-10T20:18:36.202Z,22.26
2018-06-10T20:23:39.223Z,22.02
2018-06-10T20:28:42.256Z,21.86
2018-06-10T20:33:45.340Z,21.69
2018-06-10T20:38:48.411Z,21.69
2018-06-10T20:43:51.457Z,21.68
2018-06-10T20:48:54.503Z,21.54
2018-06-10T20:53:57.607Z,21.35
2018-06-10T20:59:00.641Z,21.25
2018-06-10T21:04:03.712Z,21.26
2018-06-10T21:09:07.848Z,21.29
2018-06-10T21:14:10.914Z,21.48
2018-06-10T21:19:13.962Z,21.46
2018-06-10T21:24:17.046Z,21.29
2018-06-10T21:29:20.081Z,21.17
2018-06-10T21:34:23.126Z,20.93
2018-06-10T21:39:26.150Z,20.86
2018-06-10T21:44:29.170Z,20.91
2018-06-10T21:49:32.265Z,21.10
2018-06-10T21:54:35.329Z,21.20
2018-06-10T21:59:38.375Z,21.11
2018-06-10T22:04:41.452Z,21.06
2018-06-10T22:09:44.856Z,21.18
2018-06-10T22:14:47.875Z,21.26
2018-06-10T22:19:50.917Z,21.40
2018-06-10T22:24:53.953Z,21.26
2018-06-10T22:29:56.985Z,21.24
2018-06-10T22:35:00.031Z,21.13
2018-06-10T22:40:03.131Z,21.04
2018-06-10T22:45:06.199Z,20.95
2018-06-10T22:50:09.201Z,20.84
2018-06-10T22:55:12.217Z,20.61
2018-06-10T23:00:15.281Z,20.51
2018-06-10T23:05:18.320Z,20.51
2018-06-10T23:10:21.318Z,20.42
2018-06-10T23:15:24.401Z,20.40
2018-06-10T23:20:27.439Z,20.56
2018-06-10T23:25:30.490Z,20.55
2018-06-10T23:30:33.521Z,20.51
2018-06-10T23:35:36.594Z,20.52
2018-06-10T23:40:39.671Z,20.63
2018-06-10T23:45:42.739Z,20.87
2018-06-10T23:50:45.789Z,20.94
2018-06-10T23:55:48.903Z,20.79
